createdAt,value
2023-04-12T00:00:55.736Z,9.94
2023-04-12T00:01:52.515Z,9.92
2023-04-12T00:02:54.414Z,9.70
2023-04-12T00:03:51.682Z,9.90
2023-04-12T00:04:55.442Z,9.79
2023-04-12T00:05:54.818Z,9.63
2023-04-12T00:06:54.452Z,9.83
2023-04-12T00:07:53.254Z,9.75
2023-04-12T00:08:50.503Z,9.68
2023-04-12T00:09:47.338Z,9.35
2023-04-12T00:10:44.211Z,9.62
2023-04-12T00:11:41.070Z,9.91
2023-04-12T00:12:38.004Z,9.90
2023-04-12T00:13:34.765Z,9.56
2023-04-12T00:14:31.576Z,9.91
2023-04-12T00:15:28.342Z,9.97
2023-04-12T00:16:25.273Z,10.05
2023-04-12T00:17:22.240Z,9.81
2023-04-12T00:18:19.024Z,9.97
2023-04-12T00:19:17.100Z,9.76
2023-04-12T00:20:16.658Z,9.37
2023-04-12T00:21:13.643Z,10.02
2023-04-12T00:22:11.913Z,9.71
2023-04-12T00:23:09.908Z,9.76
2023-04-12T00:24:07.024Z,9.93
2023-04-12T00:25:03.920Z,9.96
2023-04-12T00:26:00.962Z,9.92
2023-04-12T00:26:58.319Z,10.02
2023-04-12T00:27:55.090Z,10.12
2023-04-12T00:28:52.163Z,9.98
2023-04-12T00:29:48.955Z,9.99
2023-04-12T00:30:46.113Z,9.87
2023-04-12T00:31:43.033Z,9.87
2023-04-12T00:32:41.133Z,9.80
2023-04-12T00:33:37.916Z,9.47
2023-04-12T00:34:34.679Z,9.73
2023-04-12T00:35:31.501Z,9.84
2023-04-12T00:36:28.378Z,9.83
2023-04-12T00:37:25.501Z,9.90
2023-04-12T00:38:22.266Z,9.94
2023-04-12T00:39:19.070Z,9.96
2023-04-12T00:40:16.008Z,9.42
2023-04-12T00:41:13.818Z,10.03
2023-04-12T00:42:10.532Z,9.62
2023-04-12T00:43:07.933Z,9.83
2023-04-12T00:44:04.826Z,9.38
2023-04-12T00:45:01.700Z,9.24
2023-04-12T00:45:58.691Z,9.60
2023-04-12T00:46:55.453Z,9.91
2023-04-12T00:47:52.272Z,9.95
2023-04-12T00:48:49.950Z,9.96
2023-04-12T00:50:09.116Z,9.99
2023-04-12T00:51:09.318Z,9.65
2023-04-12T00:52:10.126Z,9.90
2023-04-12T00:53:09.620Z,9.84
2023-04-12T00:54:07.287Z,9.61
2023-04-12T00:55:05.449Z,9.94
2023-04-12T00:56:04.311Z,9.95
2023-04-12T00:57:02.046Z,9.89
2023-04-12T00:57:59.450Z,9.82
2023-04-12T00:58:56.931Z,9.50
2023-04-12T00:59:53.650Z,9.53
2023-04-12T01:00:52.990Z,9.92
2023-04-12T01:01:50.084Z,10.06
2023-04-12T01:02:48.382Z,9.51
2023-04-12T01:03:46.618Z,10.04
2023-04-12T01:04:44.191Z,9.49
2023-04-12T01:06:13.991Z,9.83
2023-04-12T01:07:25.307Z,10.08
2023-04-12T01:08:41.439Z,9.85
2023-04-12T01:10:04.082Z,9.67
2023-04-12T01:11:07.706Z,9.90
2023-04-12T01:12:42.314Z,9.81
2023-04-12T01:13:52.832Z,9.96
2023-04-12T01:14:55.932Z,9.98
2023-04-12T01:16:12.809Z,9.97
2023-04-12T01:17:17.977Z,9.95
2023-04-12T01:18:22.219Z,10.08
2023-04-12T01:19:28.662Z,10.11
2023-04-12T01:20:31.766Z,9.87
2023-04-12T01:21:42.550Z,9.80
2023-04-12T01:23:14.596Z,9.87
2023-04-12T01:24:20.102Z,9.83
2023-04-12T01:25:30.721Z,9.73
2023-04-12T01:26:46.357Z,9.89
2023-04-12T01:27:47.497Z,9.79
2023-04-12T01:28:46.167Z,9.54
2023-04-12T01:29:49.924Z,9.93
2023-04-12T01:30:51.576Z,9.73
2023-04-12T01:31:57.968Z,9.47
2023-04-12T01:32:58.577Z,9.35
2023-04-12T01:33:59.368Z,9.65
2023-04-12T01:34:59.835Z,9.85
2023-04-12T01:35:59.657Z,9.88
2023-04-12T01:36:58.873Z,10.09
2023-04-12T01:37:57.925Z,9.73
2023-04-12T01:38:56.213Z,10.00
2023-04-12T01:39:53.083Z,10.03
2023-04-12T01:40:49.992Z,9.88
2023-04-12T01:41:49.122Z,9.98
2023-04-12T01:42:46.245Z,9.99
2023-04-12T01:43:44.553Z,10.01
2023-04-12T01:44:41.621Z,9.78
2023-04-12T01:45:39.057Z,10.08
2023-04-12T01:46:37.508Z,10.08
2023-04-12T01:47:34.969Z,9.82
2023-04-12T01:48:32.579Z,10.23
2023-04-12T01:49:39.956Z,10.25
2023-04-12T01:51:05.352Z,10.06
2023-04-12T01:52:12.181Z,10.18
2023-04-12T01:53:17.346Z,10.05
2023-04-12T01:54:31.527Z,10.39
2023-04-12T01:55:31.538Z,10.17
2023-04-12T01:56:34.334Z,10.14
2023-04-12T01:57:31.990Z,10.00
2023-04-12T01:58:30.202Z,9.84
2023-04-12T01:59:31.738Z,10.19
2023-04-12T02:00:30.984Z,10.08
2023-04-12T02:01:29.426Z,9.96
2023-04-12T02:02:27.199Z,9.84
2023-04-12T02:03:25.042Z,10.25
2023-04-12T02:04:25.439Z,9.92
2023-04-12T02:05:22.789Z,9.66
2023-04-12T02:06:21.025Z,9.87
2023-04-12T02:07:21.513Z,9.94
2023-04-12T02:08:18.372Z,9.81
2023-04-12T02:09:16.130Z,10.06
2023-04-12T02:10:16.051Z,9.81
2023-04-12T02:11:14.794Z,9.76
2023-04-12T02:12:12.803Z,9.54
2023-04-12T02:13:09.647Z,10.06
2023-04-12T02:14:06.421Z,9.77
2023-04-12T02:15:04.236Z,9.74
2023-04-12T02:16:02.413Z,10.15
2023-04-12T02:17:02.376Z,10.12
2023-04-12T02:17:59.711Z,9.87
2023-04-12T02:18:57.478Z,9.84
2023-04-12T02:19:54.311Z,10.04
2023-04-12T02:20:51.193Z,9.97
2023-04-12T02:21:47.953Z,10.12
2023-04-12T02:22:44.700Z,10.09
2023-04-12T02:23:44.013Z,9.86
2023-04-12T02:24:40.752Z,9.84
2023-04-12T02:25:38.660Z,9.58
2023-04-12T02:26:36.337Z,9.85
2023-04-12T02:27:33.083Z,9.82
2023-04-12T02:28:29.965Z,9.85
2023-04-12T02:29:27.435Z,9.79
2023-04-12T02:30:24.380Z,9.45
2023-04-12T02:31:21.269Z,9.58
2023-04-12T02:32:18.193Z,9.28
2023-04-12T02:33:15.833Z,9.65
2023-04-12T02:34:13.479Z,9.82
2023-04-12T02:35:12.134Z,9.83
2023-04-12T02:36:10.913Z,9.92
2023-04-12T02:37:08.917Z,9.61
2023-04-12T02:38:08.662Z,10.04
2023-04-12T02:39:05.531Z,9.34
2023-04-12T02:40:11.538Z,10.07
2023-04-12T02:41:08.288Z,9.69
2023-04-12T02:42:05.111Z,9.81
2023-04-12T02:43:01.830Z,10.10
2023-04-12T02:43:58.695Z,10.02
2023-04-12T02:44:55.600Z,9.69
2023-04-12T02:45:52.430Z,10.01
2023-04-12T02:46:49.340Z,9.98
2023-04-12T02:47:46.163Z,9.86
2023-04-12T02:48:42.947Z,10.17
2023-04-12T02:49:40.107Z,10.30
2023-04-12T02:50:38.196Z,10.44
2023-04-12T02:51:35.323Z,10.22
2023-04-12T02:52:33.115Z,10.15
2023-04-12T02:53:29.801Z,10.27
2023-04-12T02:54:27.142Z,10.41
2023-04-12T02:55:23.943Z,10.41
2023-04-12T02:56:21.776Z,10.54
2023-04-12T02:57:18.600Z,10.30
2023-04-12T02:58:15.326Z,10.52
2023-04-12T02:59:12.063Z,10.48
2023-04-12T03:00:12.282Z,10.47
2023-04-12T03:01:09.248Z,10.32
2023-04-12T03:02:06.261Z,9.77
2023-04-12T03:03:03.793Z,10.17
2023-04-12T03:04:02.310Z,10.07
2023-04-12T03:04:59.291Z,10.12
2023-04-12T03:05:56.004Z,9.77
2023-04-12T03:06:53.782Z,10.15
2023-04-12T03:07:50.590Z,10.38
2023-04-12T03:08:48.021Z,10.41
2023-04-12T03:09:46.311Z,10.21
2023-04-12T03:10:43.055Z,9.79
2023-04-12T03:11:39.799Z,10.12
2023-04-12T03:12:36.542Z,9.91
2023-04-12T03:13:33.269Z,10.23
2023-04-12T03:14:30.057Z,10.30
2023-04-12T03:15:28.215Z,10.43
2023-04-12T03:16:29.678Z,10.22
2023-04-12T03:17:26.565Z,10.31
2023-04-12T03:18:23.592Z,10.23
2023-04-12T03:19:20.415Z,10.49
2023-04-12T03:20:17.289Z,10.17
2023-04-12T03:21:14.057Z,10.59
2023-04-12T03:22:11.020Z,10.38
2023-04-12T03:23:07.768Z,10.43
2023-04-12T03:24:04.767Z,9.69
2023-04-12T03:25:01.589Z,9.94
2023-04-12T03:25:58.448Z,10.07
2023-04-12T03:26:55.329Z,10.60
2023-04-12T03:27:52.797Z,10.50
2023-04-12T03:28:49.609Z,10.31
2023-04-12T03:29:46.537Z,10.40
2023-04-12T03:30:43.419Z,10.11
2023-04-12T03:31:40.540Z,10.29
2023-04-12T03:32:39.112Z,9.55
2023-04-12T03:33:36.036Z,9.89
2023-04-12T03:34:32.765Z,10.15
2023-04-12T03:35:29.592Z,10.20
2023-04-12T03:36:27.305Z,10.05
2023-04-12T03:37:24.678Z,9.79
2023-04-12T03:38:21.459Z,10.07
2023-04-12T03:39:18.347Z,10.13
2023-04-12T03:40:15.207Z,10.08
2023-04-12T03:41:12.099Z,10.08
2023-04-12T03:42:13.577Z,9.72
2023-04-12T03:43:18.741Z,9.52
2023-04-12T03:44:15.822Z,9.96
2023-04-12T03:45:12.573Z,10.08
2023-04-12T03:46:09.540Z,10.03
2023-04-12T03:47:06.344Z,10.14
2023-04-12T03:48:03.518Z,10.20
2023-04-12T03:49:00.569Z,10.01
2023-04-12T03:51:08.043Z,10.16
2023-04-12T03:52:07.301Z,10.18
2023-04-12T03:53:04.043Z,9.79
2023-04-12T03:54:02.856Z,10.36
2023-04-12T03:55:00.349Z,10.21
2023-04-12T03:55:57.209Z,10.55
2023-04-12T03:56:54.059Z,10.28
2023-04-12T03:57:50.993Z,10.02
2023-04-12T03:58:48.143Z,10.36
2023-04-12T03:59:44.971Z,10.43
2023-04-12T04:00:42.546Z,10.29
2023-04-12T04:01:39.379Z,10.52
2023-04-12T04:02:36.766Z,10.26
2023-04-12T04:03:35.197Z,10.74
2023-04-12T04:04:32.255Z,10.48
2023-04-12T04:05:30.697Z,10.67
2023-04-12T04:06:27.792Z,10.85
2023-04-12T04:07:24.644Z,10.42
2023-04-12T04:08:22.068Z,10.34
2023-04-12T04:09:19.074Z,10.59
2023-04-12T04:10:16.072Z,10.24
2023-04-12T04:11:13.817Z,10.35
2023-04-12T04:12:10.671Z,10.32
2023-04-12T04:13:07.643Z,10.32
2023-04-12T04:14:04.393Z,10.10
2023-04-12T04:15:01.215Z,10.47
2023-04-12T04:16:04.904Z,10.30
2023-04-12T04:17:01.794Z,10.37
2023-04-12T04:17:58.886Z,10.40
2023-04-12T04:18:56.016Z,10.14
2023-04-12T04:19:52.901Z,10.15
2023-04-12T04:20:49.687Z,10.19
2023-04-12T04:21:46.413Z,10.07
2023-04-12T04:22:44.738Z,9.53
2023-04-12T04:23:44.860Z,10.01
2023-04-12T04:24:42.753Z,10.25
2023-04-12T04:25:40.059Z,10.38
2023-04-12T04:26:38.452Z,9.93
2023-04-12T04:27:38.340Z,10.09
2023-04-12T04:28:37.314Z,10.10
2023-04-12T04:29:34.094Z,9.89
2023-04-12T04:30:34.119Z,10.07
2023-04-12T04:31:34.743Z,9.87
2023-04-12T04:32:34.894Z,10.17
2023-04-12T04:33:32.746Z,10.24
2023-04-12T04:34:29.575Z,9.40
2023-04-12T04:35:27.253Z,9.57
2023-04-12T04:36:24.132Z,9.25
2023-04-12T04:37:21.310Z,9.79
2023-04-12T04:38:18.713Z,10.03
2023-04-12T04:39:15.877Z,9.48
2023-04-12T04:40:12.684Z,9.95
2023-04-12T04:41:10.398Z,9.94
2023-04-12T04:42:07.248Z,9.81
2023-04-12T04:43:05.847Z,9.87
2023-04-12T04:44:09.657Z,10.32
2023-04-12T04:45:13.694Z,9.63
2023-04-12T04:46:10.774Z,10.05
2023-04-12T04:47:08.735Z,9.86
2023-04-12T04:48:05.947Z,10.01
2023-04-12T04:49:03.064Z,9.28
2023-04-12T04:50:00.401Z,9.85
2023-04-12T04:50:57.436Z,9.42
2023-04-12T04:51:54.523Z,9.93
2023-04-12T04:52:51.311Z,9.27
2023-04-12T04:53:48.138Z,9.68
2023-04-12T04:54:45.210Z,9.65
2023-04-12T04:55:41.997Z,9.91
2023-04-12T04:56:38.741Z,9.85
2023-04-12T04:57:35.565Z,9.05
2023-04-12T04:58:32.627Z,9.66
2023-04-12T04:59:29.438Z,9.80
2023-04-12T05:00:26.240Z,9.64
2023-04-12T05:01:26.216Z,9.79
2023-04-12T05:02:23.271Z,9.78
2023-04-12T05:03:20.249Z,9.80
2023-04-12T05:04:17.090Z,9.68
2023-04-12T05:05:14.028Z,9.41
2023-04-12T05:06:11.786Z,9.64
2023-04-12T05:07:08.621Z,9.73
2023-04-12T05:08:05.702Z,9.64
2023-04-12T05:09:02.609Z,9.24
2023-04-12T05:09:59.506Z,9.77
2023-04-12T05:10:57.830Z,9.44
2023-04-12T05:11:54.638Z,9.90
2023-04-12T05:12:51.390Z,8.23
2023-04-12T05:13:48.282Z,9.87
2023-04-12T05:14:47.994Z,10.03
2023-04-12T05:15:49.009Z,9.68
2023-04-12T05:16:45.774Z,9.86
2023-04-12T05:17:42.713Z,9.87
2023-04-12T05:18:39.494Z,9.78
2023-04-12T05:19:36.307Z,9.68
2023-04-12T05:20:33.106Z,9.87
2023-04-12T05:21:29.837Z,9.97
2023-04-12T05:22:29.540Z,9.85
2023-04-12T05:23:27.445Z,9.93
2023-04-12T05:24:24.336Z,10.17
2023-04-12T05:25:21.175Z,9.92
2023-04-12T05:26:18.980Z,9.53
2023-04-12T05:27:19.066Z,10.03
2023-04-12T05:28:17.544Z,10.19
2023-04-12T05:29:14.375Z,10.25
2023-04-12T05:30:11.624Z,10.37
2023-04-12T05:31:08.598Z,9.56
2023-04-12T05:32:05.530Z,10.13
2023-04-12T05:33:02.295Z,9.86
2023-04-12T05:33:59.195Z,9.97
2023-04-12T05:34:56.199Z,10.21
2023-04-12T05:35:52.976Z,9.99
2023-04-12T05:36:49.756Z,9.92
2023-04-12T05:37:46.558Z,9.89
2023-04-12T05:38:43.538Z,9.98
2023-04-12T05:39:40.470Z,10.38
2023-04-12T05:40:37.320Z,10.50
2023-04-12T05:41:34.176Z,10.50
2023-04-12T05:42:31.462Z,10.13
2023-04-12T05:43:28.152Z,10.39
2023-04-12T05:44:24.989Z,9.97
2023-04-12T05:45:21.728Z,10.00
2023-04-12T05:46:18.505Z,9.96
2023-04-12T05:47:15.611Z,10.19
2023-04-12T05:48:12.490Z,10.35
2023-04-12T05:49:09.211Z,10.33
2023-04-12T05:50:07.564Z,10.18
2023-04-12T05:51:05.392Z,10.28
2023-04-12T05:52:03.225Z,10.21
2023-04-12T05:53:03.483Z,10.25
2023-04-12T05:54:01.360Z,10.13
2023-04-12T05:54:58.148Z,10.00
2023-04-12T05:55:55.289Z,10.38
2023-04-12T05:56:55.446Z,9.91
2023-04-12T05:57:52.426Z,9.96
2023-04-12T05:58:49.192Z,10.10
2023-04-12T05:59:46.020Z,10.19
2023-04-12T06:00:43.075Z,9.80
2023-04-12T06:01:42.700Z,10.19
2023-04-12T06:02:40.699Z,10.02
2023-04-12T06:03:41.669Z,9.69
2023-04-12T06:04:50.103Z,10.24
2023-04-12T06:05:47.874Z,10.47
2023-04-12T06:06:44.762Z,10.43
2023-04-12T06:07:48.459Z,9.78
2023-04-12T06:08:45.516Z,10.36
2023-04-12T06:09:43.059Z,10.34
2023-04-12T06:10:39.792Z,10.17
2023-04-12T06:11:39.059Z,10.23
2023-04-12T06:12:35.927Z,10.06
2023-04-12T06:13:32.694Z,9.87
2023-04-12T06:14:29.490Z,10.13
2023-04-12T06:15:26.397Z,10.08
2023-04-12T06:16:23.240Z,10.21
2023-04-12T06:17:20.252Z,9.93
2023-04-12T06:18:17.121Z,9.75
2023-04-12T06:19:13.934Z,9.84
2023-04-12T06:20:11.418Z,10.08
2023-04-12T06:21:08.649Z,10.18
2023-04-12T06:22:05.524Z,10.36
2023-04-12T06:23:02.505Z,10.49
2023-04-12T06:23:59.293Z,10.17
2023-04-12T06:24:56.077Z,10.36
2023-04-12T06:25:53.451Z,10.05
2023-04-12T06:26:50.151Z,10.16
2023-04-12T06:27:46.866Z,10.25
2023-04-12T06:28:43.650Z,10.29
2023-04-12T06:29:40.438Z,10.23
2023-04-12T06:30:37.953Z,10.20
2023-04-12T06:31:34.955Z,10.09
2023-04-12T06:32:32.010Z,10.28
2023-04-12T06:33:28.838Z,10.26
2023-04-12T06:34:25.819Z,10.28
2023-04-12T06:35:22.756Z,10.30
2023-04-12T06:36:19.508Z,10.37
2023-04-12T06:37:16.427Z,10.72
2023-04-12T06:38:13.188Z,10.70
2023-04-12T06:39:12.110Z,10.80
2023-04-12T06:40:09.476Z,10.53
2023-04-12T06:41:07.081Z,10.60
2023-04-12T06:42:03.921Z,10.64
2023-04-12T06:43:00.841Z,10.68
2023-04-12T06:43:57.687Z,10.63
2023-04-12T06:44:54.501Z,10.16
2023-04-12T06:45:51.437Z,10.05
2023-04-12T06:46:48.430Z,10.02
2023-04-12T06:47:45.375Z,9.93
2023-04-12T06:48:42.168Z,10.48
2023-04-12T06:49:39.239Z,10.10
2023-04-12T06:50:36.139Z,10.09
2023-04-12T06:51:35.546Z,10.14
2023-04-12T06:52:32.628Z,9.87
2023-04-12T06:53:30.899Z,10.63
2023-04-12T06:54:27.616Z,10.43
2023-04-12T06:55:24.472Z,9.55
2023-04-12T06:56:21.158Z,10.39
2023-04-12T06:57:18.516Z,10.34
2023-04-12T06:58:15.384Z,9.78
2023-04-12T06:59:12.113Z,10.33
2023-04-12T07:00:09.554Z,10.00
2023-04-12T07:01:10.529Z,9.98
2023-04-12T07:02:07.892Z,9.91
2023-04-12T07:03:04.817Z,10.19
2023-04-12T07:04:01.946Z,10.43
2023-04-12T07:04:58.846Z,10.12
2023-04-12T07:05:56.477Z,10.27
2023-04-12T07:06:53.272Z,10.39
2023-04-12T07:07:50.132Z,9.94
2023-04-12T07:08:46.965Z,10.42
2023-04-12T07:09:43.806Z,9.93
2023-04-12T07:10:40.551Z,10.35
2023-04-12T07:11:37.334Z,10.31
2023-04-12T07:12:34.373Z,10.15
2023-04-12T07:13:31.228Z,10.59
2023-04-12T07:14:28.597Z,10.92
2023-04-12T07:15:25.423Z,10.82
2023-04-12T07:16:22.298Z,11.10
2023-04-12T07:17:21.166Z,11.43
2023-04-12T07:18:18.027Z,11.09
2023-04-12T07:19:14.789Z,11.22
2023-04-12T07:20:12.131Z,10.22
2023-04-12T07:21:08.902Z,11.02
2023-04-12T07:22:05.705Z,10.98
2023-04-12T07:23:02.528Z,10.92
2023-04-12T07:23:59.273Z,10.72
2023-04-12T07:24:56.107Z,10.74
2023-04-12T07:25:52.888Z,10.67
2023-04-12T07:26:49.671Z,11.18
2023-04-12T07:27:46.595Z,11.08
2023-04-12T07:28:43.360Z,11.03
2023-04-12T07:29:40.130Z,10.59
2023-04-12T07:30:39.711Z,10.60
2023-04-12T07:31:36.665Z,10.55
2023-04-12T07:32:33.502Z,10.86
2023-04-12T07:33:30.844Z,10.64
2023-04-12T07:34:27.826Z,10.51
2023-04-12T07:35:24.747Z,11.18
2023-04-12T07:36:22.129Z,11.32
2023-04-12T07:37:19.105Z,11.27
2023-04-12T07:38:17.002Z,11.24
2023-04-12T07:39:14.452Z,11.29
2023-04-12T07:40:11.322Z,11.51
2023-04-12T07:41:08.518Z,11.44
2023-04-12T07:42:05.302Z,11.19
2023-04-12T07:43:02.234Z,11.68
2023-04-12T07:43:59.113Z,11.58
2023-04-12T07:44:55.972Z,11.33
2023-04-12T07:45:55.628Z,11.89
2023-04-12T07:46:52.441Z,11.74
2023-04-12T07:47:49.290Z,11.19
2023-04-12T07:48:46.280Z,11.07
2023-04-12T07:49:43.228Z,10.65
2023-04-12T07:50:40.337Z,11.56
2023-04-12T07:51:37.765Z,11.48
2023-04-12T07:52:34.624Z,11.51
2023-04-12T07:53:31.513Z,11.54
2023-04-12T07:54:29.177Z,10.99
2023-04-12T07:55:26.012Z,11.49
2023-04-12T07:56:22.877Z,11.37
2023-04-12T07:57:19.583Z,11.50
2023-04-12T07:58:17.383Z,11.62
2023-04-12T07:59:14.149Z,11.46
2023-04-12T08:00:11.611Z,11.07
2023-04-12T08:01:08.433Z,11.55
2023-04-12T08:02:06.394Z,11.01
2023-04-12T08:03:03.387Z,11.48
2023-04-12T08:04:00.707Z,11.37
2023-04-12T08:04:58.008Z,11.10
2023-04-12T08:05:54.783Z,10.90
2023-04-12T08:06:52.195Z,11.11
2023-04-12T08:07:48.880Z,10.61
2023-04-12T08:08:45.648Z,10.80
2023-04-12T08:09:42.438Z,10.70
2023-04-12T08:10:40.043Z,11.04
2023-04-12T08:11:36.811Z,10.94
2023-04-12T08:12:33.679Z,10.87
2023-04-12T08:13:30.492Z,10.89
2023-04-12T08:14:27.277Z,11.27
2023-04-12T08:15:25.054Z,11.17
2023-04-12T08:16:22.055Z,11.27
2023-04-12T08:17:18.941Z,10.87
2023-04-12T08:18:15.884Z,11.06
2023-04-12T08:19:12.714Z,11.20
2023-04-12T08:20:10.050Z,11.39
2023-04-12T08:21:06.833Z,11.44
2023-04-12T08:22:03.724Z,11.38
2023-04-12T08:23:00.648Z,11.52
2023-04-12T08:23:57.869Z,11.99
2023-04-12T08:24:54.778Z,11.54
2023-04-12T08:25:53.440Z,11.85
2023-04-12T08:26:53.261Z,11.57
2023-04-12T08:27:51.429Z,11.51
2023-04-12T08:28:48.735Z,11.46
2023-04-12T08:29:45.708Z,11.63
2023-04-12T08:30:43.445Z,11.75
2023-04-12T08:31:40.439Z,11.79
2023-04-12T08:32:38.040Z,11.50
2023-04-12T08:33:34.801Z,11.59
2023-04-12T08:34:33.122Z,11.50
2023-04-12T08:35:29.962Z,11.75
2023-04-12T08:36:27.386Z,12.07
2023-04-12T08:37:24.267Z,12.09
2023-04-12T08:38:30.686Z,11.99
2023-04-12T08:39:34.373Z,11.81
2023-04-12T08:40:31.254Z,11.34
2023-04-12T08:41:28.368Z,11.67
2023-04-12T08:42:25.424Z,11.30
2023-04-12T08:43:24.696Z,11.63
2023-04-12T08:44:39.909Z,11.86
2023-04-12T08:45:38.123Z,12.06
2023-04-12T08:46:36.613Z,11.44
2023-04-12T08:47:39.084Z,11.85
2023-04-12T08:48:37.121Z,11.87
2023-04-12T08:49:35.303Z,12.05
2023-04-12T08:50:32.973Z,12.21
2023-04-12T08:51:32.837Z,11.96
2023-04-12T08:52:33.802Z,12.31
2023-04-12T08:53:31.806Z,12.49
2023-04-12T08:54:29.148Z,12.41
2023-04-12T08:55:25.999Z,12.25
2023-04-12T08:56:23.787Z,12.36
2023-04-12T08:57:21.020Z,11.84
2023-04-12T08:58:18.206Z,12.20
2023-04-12T08:59:15.117Z,12.26
2023-04-12T09:00:14.665Z,12.12
2023-04-12T09:01:15.798Z,12.29
2023-04-12T09:02:16.454Z,12.16
2023-04-12T09:03:13.428Z,12.23
2023-04-12T09:04:10.774Z,12.55
2023-04-12T09:05:09.832Z,12.05
2023-04-12T09:06:07.299Z,12.41
2023-04-12T09:07:06.847Z,12.48
2023-04-12T09:08:04.582Z,12.84
2023-04-12T09:09:08.093Z,12.28
2023-04-12T09:10:06.079Z,12.21
2023-04-12T09:11:20.996Z,12.78
2023-04-12T09:12:20.497Z,12.47
2023-04-12T09:13:17.281Z,12.44
2023-04-12T09:14:29.459Z,11.96
2023-04-12T09:15:26.272Z,12.17
2023-04-12T09:16:37.316Z,11.98
2023-04-12T09:17:36.734Z,12.94
2023-04-12T09:18:49.360Z,12.96
2023-04-12T09:19:46.177Z,12.77
2023-04-12T09:20:42.897Z,12.75
2023-04-12T09:21:53.656Z,12.99
2023-04-12T09:22:50.548Z,12.46
2023-04-12T09:24:06.231Z,12.34
2023-04-12T09:25:03.402Z,12.45
2023-04-12T09:26:00.293Z,12.19
2023-04-12T09:27:04.040Z,12.78
2023-04-12T09:28:00.822Z,12.61
2023-04-12T09:28:57.981Z,13.05
2023-04-12T09:30:07.951Z,12.93
2023-04-12T09:31:04.997Z,12.80
2023-04-12T09:32:04.890Z,12.85
2023-04-12T09:33:11.829Z,13.03
2023-04-12T09:34:09.543Z,12.88
2023-04-12T09:35:07.677Z,12.76
2023-04-12T09:36:06.987Z,12.99
2023-04-12T09:37:17.186Z,12.98
2023-04-12T09:38:15.081Z,13.09
2023-04-12T09:39:11.806Z,13.12
2023-04-12T09:40:13.325Z,13.03
2023-04-12T09:41:26.380Z,13.05
2023-04-12T09:42:33.450Z,13.18
2023-04-12T09:43:40.568Z,13.34
2023-04-12T09:44:38.252Z,13.38
2023-04-12T09:45:39.047Z,13.27
2023-04-12T09:46:36.696Z,13.13
2023-04-12T09:47:41.304Z,13.10
2023-04-12T09:48:43.009Z,13.22
2023-04-12T09:49:41.978Z,13.02
2023-04-12T09:50:39.219Z,13.37
2023-04-12T09:51:36.776Z,12.35
2023-04-12T09:52:41.198Z,12.22
2023-04-12T09:53:46.449Z,13.15
2023-04-12T09:54:50.198Z,13.27
2023-04-12T09:55:50.834Z,13.06
2023-04-12T09:56:48.913Z,13.29
2023-04-12T09:57:46.253Z,12.85
2023-04-12T09:58:45.651Z,13.12
2023-04-12T09:59:48.543Z,12.99
2023-04-12T10:00:47.583Z,12.52
2023-04-12T10:01:45.128Z,13.21
2023-04-12T10:02:45.040Z,12.56
2023-04-12T10:03:43.462Z,13.26
2023-04-12T10:04:41.975Z,13.08
2023-04-12T10:05:41.149Z,13.01
2023-04-12T10:06:38.013Z,12.99
2023-04-12T10:07:41.905Z,13.04
2023-04-12T10:08:39.269Z,12.93
2023-04-12T10:09:39.985Z,12.99
2023-04-12T10:10:36.832Z,12.95
2023-04-12T10:11:34.426Z,13.18
2023-04-12T10:12:32.103Z,12.69
2023-04-12T10:13:32.064Z,12.53
2023-04-12T10:14:29.933Z,13.26
2023-04-12T10:15:29.608Z,13.11
2023-04-12T10:16:27.263Z,12.74
2023-04-12T10:17:26.529Z,13.22
2023-04-12T10:18:24.118Z,13.11
2023-04-12T10:19:29.175Z,12.81
2023-04-12T10:20:29.266Z,12.93
2023-04-12T10:21:26.934Z,12.63
2023-04-12T10:22:23.763Z,12.69
2023-04-12T10:23:20.658Z,12.43
2023-04-12T10:24:17.926Z,12.61
2023-04-12T10:25:17.315Z,12.15
2023-04-12T10:26:17.112Z,12.58
2023-04-12T10:27:15.517Z,12.63
2023-04-12T10:28:21.844Z,12.74
2023-04-12T10:29:25.400Z,12.89
2023-04-12T10:30:32.391Z,12.71
2023-04-12T10:31:30.974Z,12.76
2023-04-12T10:32:28.046Z,12.62
2023-04-12T10:33:33.060Z,13.36
2023-04-12T10:34:31.340Z,13.31
2023-04-12T10:35:28.459Z,13.28
2023-04-12T10:36:59.990Z,13.15
2023-04-12T10:38:06.287Z,13.57
2023-04-12T10:39:11.200Z,13.20
2023-04-12T10:40:17.384Z,13.44
2023-04-12T10:41:15.559Z,13.52
2023-04-12T10:42:25.623Z,13.78
2023-04-12T10:43:22.481Z,13.74
2023-04-12T10:44:26.861Z,12.96
2023-04-12T10:45:23.541Z,13.32
2023-04-12T10:46:39.119Z,13.58
2023-04-12T10:47:48.828Z,13.76
2023-04-12T10:48:53.459Z,13.60
2023-04-12T10:50:24.602Z,13.82
2023-04-12T10:51:25.566Z,13.60
2023-04-12T10:52:22.388Z,13.65
2023-04-12T10:53:25.484Z,13.65
2023-04-12T10:54:22.247Z,13.87
2023-04-12T10:55:30.137Z,13.73
2023-04-12T10:56:32.102Z,13.56
2023-04-12T10:57:45.533Z,13.57
2023-04-12T10:58:48.175Z,13.68
2023-04-12T10:59:56.642Z,13.72
2023-04-12T11:02:13.224Z,13.91
2023-04-12T11:03:13.096Z,13.87
2023-04-12T11:04:20.333Z,13.77
2023-04-12T11:05:19.347Z,13.73
2023-04-12T11:06:26.941Z,13.45
2023-04-12T11:07:40.954Z,13.78
2023-04-12T11:08:41.026Z,13.63
2023-04-12T11:09:43.432Z,13.61
2023-04-12T11:10:41.483Z,13.03
2023-04-12T11:11:41.773Z,13.64
2023-04-12T11:12:39.045Z,14.01
2023-04-12T11:13:36.905Z,14.02
2023-04-12T11:14:51.265Z,14.12
2023-04-12T11:15:54.924Z,14.01
2023-04-12T11:17:06.845Z,14.19
2023-04-12T11:18:07.054Z,14.05
2023-04-12T11:19:03.998Z,13.77
2023-04-12T11:20:01.876Z,13.06
2023-04-12T11:20:59.309Z,13.86
2023-04-12T11:21:57.035Z,14.01
2023-04-12T11:22:54.027Z,14.00
2023-04-12T11:23:52.958Z,13.90
2023-04-12T11:25:09.342Z,13.55
2023-04-12T11:26:06.235Z,13.82
2023-04-12T11:27:03.479Z,13.45
2023-04-12T11:28:00.957Z,13.77
2023-04-12T11:28:59.361Z,13.81
2023-04-12T11:29:58.969Z,13.77
2023-04-12T11:30:59.022Z,14.14
2023-04-12T11:31:56.362Z,13.77
2023-04-12T11:32:53.212Z,13.34
2023-04-12T11:33:50.038Z,13.86
2023-04-12T11:34:49.921Z,13.56
2023-04-12T11:35:46.693Z,13.68
2023-04-12T11:36:46.013Z,12.95
2023-04-12T11:37:44.359Z,13.70
2023-04-12T11:38:41.649Z,13.84
2023-04-12T11:39:41.518Z,13.87
2023-04-12T11:40:38.330Z,13.52
2023-04-12T11:41:35.140Z,13.41
2023-04-12T11:42:33.585Z,13.74
2023-04-12T11:43:31.133Z,13.55
2023-04-12T11:44:28.200Z,13.71
2023-04-12T11:45:25.171Z,13.80
2023-04-12T11:46:22.020Z,14.05
2023-04-12T11:47:21.423Z,13.84
2023-04-12T11:48:19.354Z,13.31
2023-04-12T11:49:21.259Z,13.62
2023-04-12T11:50:30.125Z,13.59
2023-04-12T11:51:32.139Z,13.83
2023-04-12T11:52:33.720Z,13.51
2023-04-12T11:53:30.561Z,13.71
2023-04-12T11:54:29.827Z,13.55
2023-04-12T11:55:27.072Z,13.49
2023-04-12T11:56:24.103Z,13.74
2023-04-12T11:57:20.969Z,13.25
2023-04-12T11:58:22.531Z,13.91
2023-04-12T11:59:19.311Z,13.25
2023-04-12T12:00:16.708Z,13.88
2023-04-12T12:01:15.802Z,13.96
2023-04-12T12:03:19.317Z,13.83
2023-04-12T12:04:16.559Z,13.62
2023-04-12T12:05:13.930Z,13.76
2023-04-12T12:06:12.101Z,13.93
2023-04-12T12:07:12.530Z,14.31
2023-04-12T12:08:09.745Z,14.27
2023-04-12T12:09:06.697Z,14.43
2023-04-12T12:10:04.333Z,14.48
2023-04-12T12:11:07.793Z,14.28
2023-04-12T12:12:06.586Z,14.49
2023-04-12T12:13:05.482Z,14.29
2023-04-12T12:14:02.289Z,14.53
2023-04-12T12:15:00.767Z,14.55
2023-04-12T12:15:57.768Z,14.17
2023-04-12T12:16:59.439Z,14.15
2023-04-12T12:17:56.427Z,14.17
2023-04-12T12:18:53.224Z,13.88
2023-04-12T12:19:49.998Z,14.37
2023-04-12T12:20:51.484Z,14.02
2023-04-12T12:21:48.191Z,14.25
2023-04-12T12:22:46.814Z,14.09
2023-04-12T12:23:44.147Z,13.85
2023-04-12T12:24:49.933Z,13.82
2023-04-12T12:25:47.159Z,14.05
2023-04-12T12:26:44.572Z,13.97
2023-04-12T12:27:44.326Z,14.00
2023-04-12T12:28:41.248Z,13.77
2023-04-12T12:29:38.737Z,13.89
2023-04-12T12:30:40.146Z,14.04
2023-04-12T12:31:36.946Z,14.12
2023-04-12T12:32:35.472Z,13.85
2023-04-12T12:34:00.205Z,14.07
2023-04-12T12:34:58.448Z,14.10
2023-04-12T12:35:57.279Z,13.95
2023-04-12T12:36:56.983Z,13.61
2023-04-12T12:37:58.826Z,13.74
2023-04-12T12:38:56.444Z,14.06
2023-04-12T12:40:16.738Z,14.16
2023-04-12T12:41:22.485Z,13.86
2023-04-12T12:42:19.313Z,13.68
2023-04-12T12:43:20.659Z,13.83
2023-04-12T12:44:17.422Z,13.87
2023-04-12T12:45:16.020Z,13.73
2023-04-12T12:46:13.193Z,13.78
2023-04-12T12:47:14.088Z,13.92
2023-04-12T12:48:11.849Z,13.94
2023-04-12T12:49:08.792Z,14.03
2023-04-12T12:50:06.076Z,14.19
2023-04-12T12:51:02.890Z,14.04
2023-04-12T12:51:59.835Z,13.94